Weather at Myrtle Beach International Airport

Public forecast

Using degrees Fahrenheit for public forecast. Weather courtesy of forecast.io.

Current aviation weather report (METAR) for Myrtle Beach International Airport

Report is more than 6 hours old.

2024/06/24 05:56 (retrieved 1 day ago)

KMYR 240556Z AUTO 21011KT 10SM CLR 28/27 A2986 RMK AO2 SLP110 T02780267 10278 20272 58013

Aviation forecast (TAF) for Myrtle Beach International Airport

Forecast is more than 12 hours old.

2024/06/24 18:22 (retrieved 14 hours ago)

TAF KMYR 241720Z 2418/2518 22012KT P6SM VCTS BKN080CB FM242200 22011KT 2SM TSRA BKN060CB FM250300 23009KT P6SM VCTS SCT080CB FM250600 27007KT P6SM SCT030